createdAt,value
2022-08-05T00:02:20.851Z,5.18
2022-08-05T00:08:01.024Z,5.57
2022-08-05T00:13:38.267Z,5.63
2022-08-05T00:19:02.140Z,5.70
2022-08-05T00:24:31.269Z,5.70
2022-08-05T00:29:53.988Z,5.57
2022-08-05T00:35:18.487Z,5.75
2022-08-05T00:40:53.162Z,5.70
2022-08-05T00:46:18.202Z,6.25
2022-08-05T00:52:00.740Z,5.53
2022-08-05T00:57:25.210Z,5.78
2022-08-05T01:02:53.899Z,5.70
2022-08-05T01:08:41.154Z,5.25
2022-08-05T01:14:08.466Z,5.60
2022-08-05T01:20:01.160Z,6.10
2022-08-05T01:25:39.663Z,5.55
2022-08-05T01:31:15.484Z,5.78
2022-08-05T01:36:47.100Z,5.43
2022-08-05T01:42:13.685Z,5.03
2022-08-05T01:47:43.253Z,5.53
2022-08-05T01:53:12.705Z,5.25
2022-08-05T01:58:44.628Z,5.32
2022-08-05T02:04:15.133Z,5.72
2022-08-05T02:09:37.821Z,5.45
2022-08-05T02:15:31.161Z,6.00
2022-08-05T02:21:17.782Z,5.55
2022-08-05T02:26:53.739Z,6.30
2022-08-05T02:32:29.163Z,5.82
2022-08-05T02:37:55.133Z,6.00
2022-08-05T02:43:23.349Z,5.88
2022-08-05T02:48:47.651Z,6.18
2022-08-05T02:54:36.414Z,6.05
2022-08-05T02:59:55.918Z,6.22
2022-08-05T03:05:21.785Z,5.63
2022-08-05T03:11:53.554Z,6.45
2022-08-05T03:16:53.295Z,6.25
2022-08-05T03:22:19.006Z,6.10
2022-08-05T03:27:58.883Z,6.85
2022-08-05T03:33:23.018Z,6.43
2022-08-05T03:38:54.844Z,7.45
2022-08-05T03:44:20.007Z,7.85
2022-08-05T03:49:51.888Z,7.35
2022-08-05T03:56:05.950Z,7.15
2022-08-05T04:01:20.784Z,7.07
2022-08-05T04:06:47.961Z,7.82
2022-08-05T04:12:23.672Z,7.75
2022-08-05T04:17:56.569Z,7.65
2022-08-05T04:24:05.998Z,7.95
2022-08-05T04:29:08.540Z,7.50
2022-08-05T04:34:35.157Z,8.23
2022-08-05T04:39:59.646Z,8.40
2022-08-05T04:45:48.297Z,8.15
2022-08-05T04:51:11.169Z,8.75
2022-08-05T04:56:37.019Z,8.18
2022-08-05T05:01:59.732Z,8.35
2022-08-05T05:07:35.253Z,8.07
2022-08-05T05:12:58.528Z,8.27
2022-08-05T05:18:28.385Z,8.23
2022-08-05T05:24:02.493Z,7.82
2022-08-05T05:30:04.556Z,7.95
2022-08-05T05:35:09.635Z,7.82
2022-08-05T05:40:32.460Z,8.15
2022-08-05T05:45:56.857Z,8.63
2022-08-05T05:51:21.707Z,8.40
2022-08-05T05:56:44.303Z,8.35
2022-08-05T06:02:09.699Z,7.95
2022-08-05T06:07:42.128Z,7.72
2022-08-05T06:13:05.359Z,7.85
2022-08-05T06:18:31.209Z,6.88
2022-08-05T06:23:54.133Z,5.60
2022-08-05T06:29:42.802Z,5.65
2022-08-05T06:34:59.192Z,5.40
2022-08-05T06:40:21.804Z,6.00
2022-08-05T06:46:03.842Z,5.68
2022-08-05T06:51:31.317Z,5.15
2022-08-05T06:56:54.784Z,5.32
2022-08-05T07:02:46.742Z,5.18
2022-08-05T07:08:10.029Z,4.90
2022-08-05T07:13:58.043Z,4.22
2022-08-05T07:19:57.982Z,3.70
2022-08-05T07:25:23.217Z,3.22
2022-08-05T07:30:52.763Z,3.75
2022-08-05T07:36:21.283Z,3.00
2022-08-05T07:42:14.383Z,2.92
2022-08-05T07:47:26.839Z,2.70
2022-08-05T07:52:49.603Z,2.50
2022-08-05T07:58:55.028Z,2.47
2022-08-05T08:03:54.878Z,2.65
2022-08-05T08:09:19.682Z,2.30
2022-08-05T08:14:42.982Z,2.80
2022-08-05T08:20:42.834Z,2.45
2022-08-05T08:26:00.417Z,2.72
2022-08-05T08:31:25.142Z,1.95
2022-08-05T08:36:54.004Z,2.38
2022-08-05T08:42:33.892Z,2.20
2022-08-05T08:48:11.743Z,1.73
2022-08-05T08:53:45.364Z,1.80
2022-08-05T08:59:14.995Z,1.88
2022-08-05T09:04:58.532Z,2.10
2022-08-05T09:10:27.104Z,2.10
2022-08-05T09:15:51.410Z,2.00
2022-08-05T09:21:20.640Z,1.70
2022-08-05T09:26:58.078Z,1.45
2022-08-05T09:32:50.235Z,1.98
2022-08-05T09:38:18.390Z,1.88
2022-08-05T09:43:49.857Z,1.95
2022-08-05T09:49:24.163Z,1.83
2022-08-05T09:55:57.168Z,1.92
2022-08-05T10:01:15.449Z,2.00
2022-08-05T10:06:59.523Z,2.45
2022-08-05T10:12:33.437Z,2.20
2022-08-05T10:18:13.936Z,2.15
2022-08-05T10:23:59.329Z,2.10
2022-08-05T10:30:05.773Z,2.88
2022-08-05T10:35:04.850Z,3.40
2022-08-05T10:40:30.442Z,2.75
2022-08-05T10:46:06.774Z,2.70
2022-08-05T10:51:57.746Z,2.80
2022-08-05T10:57:30.870Z,2.88
2022-08-05T11:03:23.857Z,2.90
2022-08-05T11:09:17.414Z,2.60
2022-08-05T11:15:11.779Z,3.00
2022-08-05T11:20:47.647Z,3.15
2022-08-05T11:26:11.692Z,3.03
2022-08-05T11:31:54.030Z,3.30
2022-08-05T11:38:30.244Z,3.28
2022-08-05T11:44:06.461Z,3.30
2022-08-05T11:49:23.319Z,2.90
2022-08-05T11:54:51.173Z,2.90
2022-08-05T12:00:28.818Z,2.60
2022-08-05T12:05:51.292Z,2.65
2022-08-05T12:11:22.930Z,2.33
2022-08-05T12:16:47.474Z,2.10
2022-08-05T12:22:10.196Z,1.98
2022-08-05T12:27:33.372Z,2.20
2022-08-05T12:32:58.751Z,2.08
2022-08-05T12:38:30.120Z,2.13
2022-08-05T12:43:57.038Z,2.35
2022-08-05T12:49:19.894Z,2.30
2022-08-05T12:54:51.442Z,2.28
2022-08-05T13:02:02.673Z,2.30
2022-08-05T13:06:11.678Z,2.20
2022-08-05T13:12:03.124Z,2.22
2022-08-05T13:17:24.967Z,2.30
2022-08-05T13:22:54.227Z,2.10
2022-08-05T13:28:18.490Z,2.50
2022-08-05T13:34:22.452Z,2.10
2022-08-05T13:40:20.104Z,2.00
2022-08-05T13:45:08.461Z,2.50
2022-08-05T13:50:32.031Z,2.35
2022-08-05T13:56:00.211Z,2.50
2022-08-05T14:01:36.210Z,2.65
2022-08-05T14:07:25.021Z,2.55
2022-08-05T14:12:49.316Z,2.92
2022-08-05T14:18:18.341Z,2.60
2022-08-05T14:23:45.466Z,2.50
2022-08-05T14:29:16.199Z,2.45
2022-08-05T14:34:40.471Z,2.40
2022-08-05T14:40:03.056Z,2.30
2022-08-05T14:45:25.575Z,2.33
2022-08-05T14:50:48.773Z,2.05
2022-08-05T14:56:13.350Z,2.20
2022-08-05T15:01:48.395Z,2.40
2022-08-05T15:07:11.812Z,2.00
2022-08-05T15:13:01.194Z,2.53
2022-08-05T15:18:25.730Z,2.17
2022-08-05T15:23:47.974Z,2.63
2022-08-05T15:29:10.465Z,2.83
2022-08-05T15:34:33.786Z,2.88
2022-08-05T15:40:58.491Z,2.75
2022-08-05T15:45:43.215Z,2.70
2022-08-05T15:51:08.156Z,2.55
2022-08-05T15:56:30.724Z,3.30
2022-08-05T16:01:53.696Z,2.78
2022-08-05T16:07:16.363Z,3.35
2022-08-05T16:12:40.730Z,3.20
2022-08-05T16:18:08.903Z,3.35
2022-08-05T16:23:54.027Z,3.90
2022-08-05T16:29:16.265Z,3.58
2022-08-05T16:34:43.663Z,3.40
2022-08-05T16:40:13.350Z,3.63
2022-08-05T16:46:04.851Z,3.33
2022-08-05T16:51:30.695Z,3.45
2022-08-05T16:57:05.096Z,3.28
2022-08-05T17:02:38.926Z,2.85
2022-08-05T17:08:01.575Z,3.60
2022-08-05T17:13:37.530Z,2.95
2022-08-05T17:19:07.464Z,3.45
2022-08-05T17:24:40.365Z,3.83
2022-08-05T17:30:12.128Z,3.10
2022-08-05T17:36:08.754Z,4.20
2022-08-05T17:42:17.650Z,4.35
2022-08-05T17:47:06.852Z,3.45
2022-08-05T17:52:28.942Z,2.55
2022-08-05T17:57:51.156Z,2.50
2022-08-05T18:03:24.113Z,2.05
2022-08-05T18:08:57.893Z,2.17
2022-08-05T18:14:20.869Z,2.10
2022-08-05T18:19:44.709Z,1.83
2022-08-05T18:25:13.988Z,1.30
2022-08-05T18:30:40.258Z,1.15
2022-08-05T18:36:11.884Z,0.80
2022-08-05T18:41:54.958Z,0.73
2022-08-05T18:47:22.734Z,0.70
2022-08-05T18:52:51.049Z,0.70
2022-08-05T18:58:16.468Z,0.90
2022-08-05T19:03:54.821Z,0.90
2022-08-05T19:09:18.974Z,0.88
2022-08-05T19:15:00.591Z,0.90
2022-08-05T19:20:25.382Z,1.20
2022-08-05T19:25:47.677Z,0.73
2022-08-05T19:31:13.545Z,0.90
2022-08-05T19:36:36.111Z,0.73
2022-08-05T19:42:07.255Z,0.88
2022-08-05T19:47:30.784Z,0.80
2022-08-05T19:52:52.992Z,0.80
2022-08-05T19:58:29.484Z,0.80
2022-08-05T20:03:52.874Z,0.90
2022-08-05T20:09:15.030Z,0.98
2022-08-05T20:14:39.471Z,0.80
2022-08-05T20:20:04.365Z,1.02
2022-08-05T20:25:33.724Z,1.00
2022-08-05T20:30:56.205Z,1.38
2022-08-05T20:36:19.583Z,1.00
2022-08-05T20:41:44.346Z,1.20
2022-08-05T20:47:07.816Z,1.17
2022-08-05T20:52:30.991Z,1.30
2022-08-05T20:57:54.614Z,1.05
2022-08-05T21:03:20.644Z,1.10
2022-08-05T21:08:43.927Z,1.17
2022-08-05T21:14:06.292Z,1.30
2022-08-05T21:19:29.748Z,1.00
2022-08-05T21:25:12.240Z,1.10
2022-08-05T21:30:34.420Z,1.17
2022-08-05T21:35:59.134Z,1.25
2022-08-05T21:41:21.856Z,1.10
2022-08-05T21:46:44.223Z,1.23
2022-08-05T21:52:27.451Z,1.38
2022-08-05T21:57:50.886Z,1.27
2022-08-05T22:03:15.942Z,1.40
2022-08-05T22:08:42.383Z,1.20
2022-08-05T22:14:35.177Z,1.45
2022-08-05T22:20:01.004Z,1.38
2022-08-05T22:26:09.648Z,1.40
2022-08-05T22:31:31.666Z,1.40
2022-08-05T22:37:07.589Z,1.45
2022-08-05T22:42:30.033Z,1.38
2022-08-05T22:47:55.320Z,1.48
2022-08-05T22:53:19.729Z,1.67
2022-08-05T22:58:43.738Z,1.77
2022-08-05T23:04:06.613Z,1.60
2022-08-05T23:09:53.233Z,1.80
2022-08-05T23:15:11.932Z,1.67
2022-08-05T23:20:37.184Z,1.48
2022-08-05T23:25:59.905Z,1.80
2022-08-05T23:31:22.306Z,2.00
2022-08-05T23:36:45.086Z,1.90
2022-08-05T23:42:14.229Z,1.90
2022-08-05T23:47:36.860Z,1.87
2022-08-05T23:53:22.810Z,2.10
2022-08-05T23:58:46.030Z,2.00
